Terminal Aerodrome Forecast
Issued by NWS Pueblo, CO

Home | Current Version | Previous Version | Text Only | Print | Product List | Glossary On
Versions: 1 2 3 4 5 6 7 8 9 10 11 12 13 14 15 16 17 18 19 20 21 22 23 24 25 26 27 28 29 30 31 32 33 34 35 36 37 38
000
FTUS45 KPUB 281731
TAFPUB
TAF
KPUB 281731Z 2818/2918 12013KT P6SM FEW120
     FM282100 10013G23KT P6SM SCT120
     FM290100 08012KT P6SM SCT100
     FM290600 06010KT P6SM SCT050 BKN100
     FM291200 10008KT P6SM BKN050=

USA.gov is the U.S. government's official web portal to all federal, state and local government web resources and services.